Time;durP1;ratioP1;P1;durP2;ratioP2;P2;SDS_P1;SDS_P2;PMS_P1;PMS_P2;Temp;Humidity;BMP_temperature;BMP_pressure;BME280_temperature;BME280_humidity;BME280_pressure;Samples;Min_cycle;Max_cycle;Signal;HPM_P1;HPM_P2
2021/01/06 00:00:55;;;;;;;1.52;1.17;;;;;;;-0.80;100.00;100624.59;4969497;28;20323;-79
2021/01/06 00:03:59;;;;;;;1.10;0.65;;;;;;;-0.88;100.00;100621.03;4968744;28;20069;-79
2021/01/06 00:07:03;;;;;;;2.88;2.47;;;;;;;-0.91;100.00;100618.28;4956591;28;20049;-79
2021/01/06 00:10:09;;;;;;;3.53;2.13;;;;;;;-0.96;100.00;100616.69;4969099;28;20076;-78
2021/01/06 00:13:15;;;;;;;4.70;1.20;;;;;;;-1.05;100.00;100618.19;4957882;28;20081;-78
2021/01/06 00:16:19;;;;;;;10.75;1.65;;;;;;;-1.16;100.00;100622.75;4948835;28;20299;-79
2021/01/06 00:19:22;;;;;;;1.27;1.17;;;;;;;-1.24;100.00;100615.69;4949591;28;20050;-78
2021/01/06 00:22:25;;;;;;;8.40;2.50;;;;;;;-1.27;100.00;100624.63;4949546;28;20085;-78
2021/01/06 00:25:32;;;;;;;1.77;1.60;;;;;;;-1.29;100.00;100629.69;4949207;28;20331;-79
2021/01/06 00:28:35;;;;;;;2.78;1.33;;;;;;;-1.28;100.00;100623.06;4949848;28;20057;-79
2021/01/06 00:31:40;;;;;;;1.77;0.82;;;;;;;-1.29;100.00;100619.53;4949592;28;20700;-78
2021/01/06 00:34:44;;;;;;;1.20;1.10;;;;;;;-1.20;100.00;100621.94;4948665;28;20053;-79
2021/01/06 00:37:47;;;;;;;1.35;1.25;;;;;;;-1.06;100.00;100622.09;4949892;28;20784;-78
2021/01/06 00:40:52;;;;;;;15.10;1.85;;;;;;;-0.98;100.00;100618.25;4949425;28;20651;-79
2021/01/06 00:43:56;;;;;;;1.10;1.00;;;;;;;-0.92;100.00;100619.44;4948227;28;20043;-79
2021/01/06 00:47:00;;;;;;;1.15;1.15;;;;;;;-0.86;100.00;100615.19;4948614;28;20801;-78
2021/01/06 00:50:04;;;;;;;1.42;1.33;;;;;;;-0.82;100.00;100616.00;4948634;28;20252;-78
2021/01/06 00:53:15;;;;;;;2.35;1.73;;;;;;;-0.72;100.00;100611.78;4947947;28;20188;-78
2021/01/06 00:56:29;;;;;;;3.67;1.70;;;;;;;-0.63;100.00;100610.28;4948920;28;20173;-78
2021/01/06 00:59:33;;;;;;;3.22;2.13;;;;;;;-0.55;100.00;100602.91;4948854;28;20658;-78
2021/01/06 01:02:36;;;;;;;0.75;0.75;;;;;;;-0.52;100.00;100602.91;4949049;28;20268;-79
2021/01/06 01:05:40;;;;;;;1.92;1.30;;;;;;;-0.44;100.00;100609.22;4948270;28;20220;-78
2021/01/06 01:08:43;;;;;;;2.10;1.23;;;;;;;-0.37;100.00;100604.53;4949432;28;20626;-79
2021/01/06 01:11:47;;;;;;;3.78;1.67;;;;;;;-0.29;100.00;100603.44;4936429;28;20084;-79
2021/01/06 01:14:50;;;;;;;1.27;0.45;;;;;;;-0.23;100.00;100599.16;4953800;28;20583;-78
2021/01/06 01:17:54;;;;;;;2.63;2.20;;;;;;;-0.15;100.00;100594.47;4969666;28;20052;-82
2021/01/06 01:20:59;;;;;;;0.47;0.47;;;;;;;-0.13;100.00;100592.16;4957484;28;20251;-84
2021/01/06 01:24:05;;;;;;;0.90;0.73;;;;;;;-0.10;100.00;100596.84;4971241;28;20049;-85
2021/01/06 01:27:09;;;;;;;6.03;1.60;;;;;;;-0.09;100.00;100585.50;4957776;28;20409;-84
2021/01/06 01:30:22;;;;;;;5.32;0.77;;;;;;;-0.07;100.00;100585.94;4969989;28;20056;-84
2021/01/06 01:33:26;;;;;;;1.85;1.00;;;;;;;-0.04;100.00;100585.13;4970530;28;20064;-84
2021/01/06 01:36:30;;;;;;;0.77;0.73;;;;;;;-0.03;100.00;100581.25;4973401;28;20272;-84
2021/01/06 01:39:34;;;;;;;6.15;1.42;;;;;;;0.03;100.00;100589.06;4960557;28;20233;-85
2021/01/06 01:42:38;;;;;;;1.67;1.02;;;;;;;0.07;100.00;100584.38;4957619;28;20793;-83
2021/01/06 01:45:44;;;;;;;1.65;0.95;;;;;;;0.14;100.00;100581.66;4972091;28;20057;-84
2021/01/06 01:48:50;;;;;;;1.05;0.65;;;;;;;0.13;100.00;100580.13;4958852;28;20585;-83
2021/01/06 01:51:59;;;;;;;0.52;0.47;;;;;;;0.15;100.00;100575.81;4957877;28;20080;-83
2021/01/06 01:55:06;;;;;;;0.85;0.75;;;;;;;0.09;100.00;100580.09;4958731;28;21018;-86
2021/01/06 01:58:16;;;;;;;8.68;1.65;;;;;;;0.06;100.00;100580.09;4961507;28;20073;-85
2021/01/06 02:01:20;;;;;;;2.22;0.47;;;;;;;0.04;100.00;100585.19;4959598;28;20057;-83
2021/01/06 02:04:31;;;;;;;1.17;1.02;;;;;;;-0.02;100.00;100571.06;4958043;28;20073;-84
2021/01/06 02:07:58;;;;;;;0.60;0.60;;;;;;;-0.01;100.00;100578.13;4985957;28;20259;-85
2021/01/06 02:11:06;;;;;;;1.60;1.00;;;;;;;-0.05;100.00;100571.84;4966785;28;20267;-83
2021/01/06 02:14:11;;;;;;;0.80;0.80;;;;;;;-0.07;100.00;100574.97;4972707;28;20076;-84
2021/01/06 02:17:15;;;;;;;0.95;0.95;;;;;;;-0.15;100.00;100578.84;4958384;28;20085;-85
2021/01/06 02:20:22;;;;;;;1.27;0.68;;;;;;;-0.19;100.00;100580.00;4970460;28;20532;-85
2021/01/06 02:23:26;;;;;;;1.00;0.65;;;;;;;-0.26;100.00;100578.00;4957872;28;20064;-84
2021/01/06 02:26:29;;;;;;;1.58;0.70;;;;;;;-0.25;100.00;100587.00;4970146;28;20073;-84
2021/01/06 02:29:35;;;;;;;1.10;0.75;;;;;;;-0.27;100.00;100575.66;4972001;28;20065;-85
2021/01/06 02:32:40;;;;;;;1.63;0.90;;;;;;;-0.30;100.00;100566.28;4959395;28;20437;-84
2021/01/06 02:35:44;;;;;;;8.30;1.30;;;;;;;-0.43;100.00;100562.31;4972705;28;20077;-86
2021/01/06 02:38:48;;;;;;;1.08;0.93;;;;;;;-0.60;100.00;100556.75;4959817;28;20107;-84
2021/01/06 02:41:52;;;;;;;3.05;1.08;;;;;;;-0.68;100.00;100557.88;4972728;28;20073;-85
2021/01/06 02:44:55;;;;;;;3.15;1.65;;;;;;;-0.80;100.00;100553.50;4970504;28;20886;-81
2021/01/06 02:47:59;;;;;;;1.27;1.17;;;;;;;-0.86;100.00;100565.97;4954909;28;20097;-81
2021/01/06 02:51:28;;;;;;;2.30;2.10;;;;;;;-0.91;100.00;100574.56;4967447;28;20360;-81
2021/01/06 02:54:36;;;;;;;2.38;0.85;;;;;;;-0.93;100.00;100571.41;4966529;28;20521;-81
2021/01/06 02:57:40;;;;;;;1.40;1.02;;;;;;;-0.93;100.00;100571.41;4967978;28;20354;-82
2021/01/06 03:00:44;;;;;;;1.20;1.08;;;;;;;-0.97;100.00;100570.59;4967089;28;20156;-81
2021/01/06 03:03:50;;;;;;;0.57;0.55;;;;;;;-0.98;100.00;100582.69;4954588;28;20251;-81
2021/01/06 03:06:57;;;;;;;1.65;0.45;;;;;;;-1.07;100.00;100582.25;4969351;28;20061;-81
2021/01/06 03:10:02;;;;;;;2.20;1.10;;;;;;;-1.13;100.00;100583.75;4969286;28;20294;-81
2021/01/06 03:13:06;;;;;;;1.48;1.38;;;;;;;-1.18;100.00;100581.38;4970848;28;20541;-81
2021/01/06 03:16:10;;;;;;;1.65;1.08;;;;;;;-1.22;100.00;100575.09;4951323;28;20549;-81
2021/01/06 03:19:15;;;;;;;6.80;1.35;;;;;;;-1.18;100.00;100571.25;4938390;28;20292;-81
2021/01/06 03:22:23;;;;;;;0.88;0.88;;;;;;;-1.22;100.00;100564.97;4951719;28;20538;-80
2021/01/06 03:25:27;;;;;;;1.23;0.95;;;;;;;-1.24;100.00;100566.50;4938836;28;20256;-80
2021/01/06 03:28:33;;;;;;;1.67;0.70;;;;;;;-1.32;100.00;100559.41;4950777;28;20580;-81
2021/01/06 03:31:43;;;;;;;2.42;1.45;;;;;;;-1.42;100.00;100571.81;4951576;28;20247;-81
2021/01/06 03:34:57;;;;;;;1.85;1.20;;;;;;;-1.52;100.00;100559.63;4950421;28;20177;-81
2021/01/06 03:38:10;;;;;;;2.97;1.23;;;;;;;-1.58;100.00;100557.63;4938455;28;20609;-81
2021/01/06 03:41:16;;;;;;;0.63;0.63;;;;;;;-1.62;100.00;100557.59;4951314;28;20081;-81
2021/01/06 03:44:21;;;;;;;0.40;0.22;;;;;;;-1.68;100.00;100555.59;4939105;28;20707;-81
2021/01/06 03:47:33;;;;;;;19.73;1.63;;;;;;;-1.70;100.00;100555.19;4938608;28;20112;-81
2021/01/06 03:50:40;;;;;;;;;;;;;;;-1.74;100.00;100544.22;4951109;28;20157;-81
2021/01/06 03:53:48;;;;;;;0.70;0.70;;;;;;;-1.70;100.00;100538.78;4951687;28;19929;-81
2021/01/06 03:56:53;;;;;;;0.75;0.65;;;;;;;-1.66;100.00;100534.94;4950702;28;20674;-81
2021/01/06 03:59:58;;;;;;;1.35;1.13;;;;;;;-1.57;100.00;100537.34;4950001;28;20343;-81
2021/01/06 04:03:09;;;;;;;3.30;1.23;;;;;;;-1.45;100.00;100530.81;4938015;28;20081;-81
2021/01/06 04:06:14;;;;;;;1.15;1.02;;;;;;;-1.33;100.00;100533.25;4950338;28;20077;-80
2021/01/06 04:09:30;;;;;;;3.30;1.15;;;;;;;-1.32;100.00;100534.84;4952390;28;20578;-81
2021/01/06 04:12:35;;;;;;;2.28;2.05;;;;;;;-1.34;100.00;100529.72;4952439;28;20065;-80
2021/01/06 04:15:39;;;;;;;1.60;1.50;;;;;;;-1.31;100.00;100522.72;4964429;28;20537;-81
2021/01/06 04:18:43;;;;;;;0.88;0.88;;;;;;;-1.28;100.00;100516.50;4969506;28;20137;-80
2021/01/06 04:21:47;;;;;;;0.80;0.63;;;;;;;-1.25;100.00;100518.47;4957305;28;20120;-80
2021/01/06 04:24:51;;;;;;;1.38;1.02;;;;;;;-1.28;100.00;100521.97;4969481;28;20263;-80
2021/01/06 04:28:14;;;;;;;3.15;1.25;;;;;;;-1.29;100.00;100520.41;4969642;28;20346;-80
2021/01/06 04:31:19;;;;;;;0.98;0.90;;;;;;;-1.30;100.00;100518.84;4969463;28;20362;-81
2021/01/06 04:34:23;;;;;;;0.65;0.65;;;;;;;-1.30;100.00;100510.66;4976872;28;20072;-80
2021/01/06 04:37:26;;;;;;;0.85;0.82;;;;;;;-1.39;100.00;100508.25;4978185;28;20402;-81
2021/01/06 04:40:41;;;;;;;0.47;0.47;;;;;;;-1.45;100.00;100511.72;4969556;28;20317;-80
2021/01/06 04:43:49;;;;;;;3.00;0.85;;;;;;;-1.52;100.00;100500.72;4972304;28;20057;-81
2021/01/06 04:47:41;;;;;;;0.65;0.65;;;;;;;-1.64;100.00;100502.56;4968987;28;20057;-81
2021/01/06 04:51:11;;;;;;;0.60;0.60;;;;;;;-1.74;100.00;100506.00;4969139;28;20064;-81
2021/01/06 04:54:42;;;;;;;2.20;1.08;;;;;;;-1.81;100.00;100513.34;4969307;28;20541;-81
2021/01/06 04:58:17;;;;;;;1.08;0.85;;;;;;;-1.90;100.00;100508.19;4956189;28;20968;-81
2021/01/06 05:01:58;;;;;;;1.40;0.57;;;;;;;-1.96;100.00;100503.44;4969585;28;20081;-81
2021/01/06 05:05:11;;;;;;;0.40;0.40;;;;;;;-2.00;100.00;100503.44;4968244;28;20084;-80
2021/01/06 05:08:29;;;;;;;15.75;1.77;;;;;;;-2.05;100.00;100506.50;4968492;28;20267;-81
2021/01/06 05:11:54;;;;;;;1.45;0.52;;;;;;;-2.04;100.00;100507.28;4968395;28;20394;-81
2021/01/06 05:15:09;;;;;;;0.30;0.30;;;;;;;-2.06;100.00;100496.75;4938284;28;20065;-82
2021/01/06 05:18:13;;;;;;;1.75;0.73;;;;;;;-2.08;100.00;100501.75;4930163;28;20234;-81
2021/01/06 05:21:22;;;;;;;1.38;0.98;;;;;;;-2.12;100.00;100495.50;4928920;28;20518;-81
2021/01/06 05:24:45;;;;;;;0.73;0.68;;;;;;;-2.15;100.00;100496.25;4961419;28;20046;-81
2021/01/06 05:27:50;;;;;;;0.95;0.95;;;;;;;-2.12;100.00;100494.72;4973181;28;20065;-81
2021/01/06 05:30:56;;;;;;;2.33;1.00;;;;;;;-2.06;100.00;100496.75;4962095;28;20049;-80
2021/01/06 05:34:00;;;;;;;2.00;1.10;;;;;;;-2.04;100.00;100491.69;4974506;28;20054;-81
2021/01/06 05:37:03;;;;;;;1.80;0.82;;;;;;;-2.03;100.00;100493.25;4961201;28;20510;-82
2021/01/06 05:40:10;;;;;;;1.10;0.45;;;;;;;-2.07;100.00;100497.09;4973198;28;20058;-81
2021/01/06 05:43:17;;;;;;;3.50;1.55;;;;;;;-2.14;100.00;100497.81;4961023;28;20054;-81
2021/01/06 05:46:31;;;;;;;1.85;0.63;;;;;;;-2.19;100.00;100502.84;4973081;28;20699;-81
2021/01/06 05:49:35;;;;;;;0.95;0.85;;;;;;;-2.28;100.00;100492.22;4961047;28;20411;-81
2021/01/06 05:52:39;;;;;;;2.45;1.13;;;;;;;-2.30;100.00;100500.00;4972747;28;20218;-81
2021/01/06 05:55:47;;;;;;;5.18;2.30;;;;;;;-2.35;100.00;100503.03;4961005;28;20077;-80
2021/01/06 05:59:11;;;;;;;1.45;1.35;;;;;;;-2.41;100.00;100499.09;4972600;28;20510;-82
2021/01/06 06:02:38;;;;;;;1.50;0.70;;;;;;;-2.45;100.00;100498.28;4960549;28;20047;-81
2021/01/06 06:06:04;;;;;;;0.63;0.63;;;;;;;-2.44;100.00;100502.56;4973542;28;20058;-81
2021/01/06 06:09:27;;;;;;;13.90;0.95;;;;;;;-2.46;100.00;100496.69;4974552;28;20113;-81
2021/01/06 06:12:36;;;;;;;1.55;0.80;;;;;;;-2.43;100.00;100487.78;4972554;28;20466;-82
2021/01/06 06:16:09;;;;;;;1.25;1.25;;;;;;;-2.34;100.00;100499.19;4963306;28;20410;-82
2021/01/06 06:19:37;;;;;;;10.98;3.13;;;;;;;-2.16;100.00;100491.16;4992348;28;20053;-82
2021/01/06 06:23:30;;;;;;;12.00;4.13;;;;;;;-2.02;100.00;100489.38;4992222;28;20058;-81
2021/01/06 06:26:34;;;;;;;7.28;1.50;;;;;;;-1.96;100.00;100493.31;4993159;28;20058;-81
2021/01/06 06:30:03;;;;;;;1.65;1.15;;;;;;;-1.90;100.00;100486.34;4992435;28;20057;-81
2021/01/06 06:33:25;;;;;;;4.78;2.00;;;;;;;-1.87;100.00;100482.88;4981940;28;20070;-81
2021/01/06 06:36:32;;;;;;;3.75;1.65;;;;;;;-1.82;100.00;100479.03;4991653;28;20382;-84
2021/01/06 06:39:42;;;;;;;4.35;2.13;;;;;;;-1.79;100.00;100487.25;4981018;28;20062;-82
2021/01/06 06:42:52;;;;;;;7.68;2.05;;;;;;;-1.78;100.00;100483.38;4996388;28;20061;-87
2021/01/06 06:46:15;;;;;;;0.80;0.80;;;;;;;-1.76;100.00;100486.50;4998543;28;20521;-87
2021/01/06 06:49:32;;;;;;;1.45;1.33;;;;;;;-1.74;100.00;100489.63;4996055;28;20069;-86
2021/01/06 06:52:55;;;;;;;1.45;1.00;;;;;;;-1.73;100.00;100495.84;4996162;28;20540;-86
2021/01/06 06:56:18;;;;;;;1.58;1.10;;;;;;;-1.72;100.00;100492.75;4996887;28;20053;-84
2021/01/06 07:00:08;;;;;;;1.88;1.60;;;;;;;-1.68;100.00;100493.56;4995447;28;20057;-86
2021/01/06 07:03:13;;;;;;;0.70;0.70;;;;;;;-1.56;100.00;100498.72;4974612;28;20054;-86
2021/01/06 07:06:17;;;;;;;2.25;0.82;;;;;;;-1.37;100.00;100505.13;4985723;28;20514;-84
2021/01/06 07:09:30;;;;;;;1.20;1.08;;;;;;;-1.26;100.00;100497.78;4984958;28;20049;-86
2021/01/06 07:12:40;;;;;;;1.27;1.05;;;;;;;-1.12;100.00;100492.41;4996003;28;20081;-88
2021/01/06 07:15:57;;;;;;;0.45;0.45;;;;;;;-1.04;100.00;100499.50;5007117;28;20065;-87
2021/01/06 07:19:18;;;;;;;3.08;1.08;;;;;;;-0.97;100.00;100502.25;5005006;28;20069;-85
2021/01/06 07:22:34;;;;;;;18.95;2.00;;;;;;;-0.90;100.00;100489.44;5003716;28;20108;-87
2021/01/06 07:25:41;;;;;;;1.10;1.08;;;;;;;-0.76;100.00;100483.25;5016009;28;20407;-84
2021/01/06 07:28:45;;;;;;;0.45;0.38;;;;;;;-0.71;100.00;100485.59;5015692;28;20407;-84
2021/01/06 07:32:02;;;;;;;1.42;0.98;;;;;;;-0.64;100.00;100491.09;5003816;28;20052;-85
2021/01/06 07:35:21;;;;;;;1.95;1.73;;;;;;;-0.59;100.00;100481.75;5004266;28;20053;-85
2021/01/06 07:38:33;;;;;;;1.58;1.30;;;;;;;-0.57;100.00;100491.13;5015726;28;20053;-85
2021/01/06 07:41:43;;;;;;;11.27;1.70;;;;;;;-0.55;100.00;100486.06;5003332;28;20073;-85
2021/01/06 07:44:47;;;;;;;1.15;1.08;;;;;;;-0.54;100.00;100495.81;5003733;28;20038;-84
2021/01/06 07:48:22;;;;;;;6.00;2.72;;;;;;;-0.45;100.00;100488.03;5003189;28;20056;-84
2021/01/06 07:51:38;;;;;;;2.97;1.13;;;;;;;-0.35;100.00;100498.25;5024773;28;20060;-84
2021/01/06 07:54:52;;;;;;;3.42;0.85;;;;;;;-0.31;100.00;100493.56;5002812;28;20489;-84
2021/01/06 07:58:19;;;;;;;2.92;0.52;;;;;;;-0.25;100.00;100502.19;5025374;28;20045;-85
2021/01/06 08:01:44;;;;;;;1.17;1.02;;;;;;;-0.25;100.00;100502.19;5014107;28;20068;-85
2021/01/06 08:04:56;;;;;;;0.75;0.75;;;;;;;-0.24;100.00;100493.56;5002437;28;20053;-85
2021/01/06 08:12:12;;;;;;;0.32;0.32;;;;;;;-0.18;100.00;100503.00;5019343;28;20053;-78
2021/01/06 08:15:18;;;;;;;2.08;0.60;;;;;;;-0.17;100.00;100504.53;5020445;28;20049;-77
2021/01/06 08:18:30;;;;;;;1.25;1.15;;;;;;;-0.16;100.00;100511.59;5033319;28;20056;-77
2021/01/06 08:22:08;;;;;;;5.15;0.93;;;;;;;-0.15;100.00;100513.16;5033122;28;20100;-77
2021/01/06 08:25:21;;;;;;;0.52;0.43;;;;;;;-0.12;100.00;100522.56;5033784;28;20060;-77
2021/01/06 08:28:30;;;;;;;7.53;0.70;;;;;;;-0.12;100.00;100528.03;5023912;28;20053;-77
2021/01/06 08:31:35;;;;;;;1.00;0.90;;;;;;;-0.10;100.00;100526.47;5008716;28;20065;-77
2021/01/06 08:34:41;;;;;;;2.85;1.55;;;;;;;-0.01;100.00;100528.84;4973614;28;20677;-76
2021/01/06 08:37:50;;;;;;;6.75;1.67;;;;;;;0.10;100.00;100515.97;4974097;28;20188;-76
2021/01/06 08:40:55;;;;;;;5.10;1.60;;;;;;;0.20;100.00;100517.13;4973638;28;20056;-75
2021/01/06 08:44:07;;;;;;;9.25;2.08;;;;;;;0.23;100.00;100524.56;4974635;28;20573;-76
2021/01/06 08:47:31;;;;;;;12.75;3.00;;;;;;;0.19;100.00;100527.31;4974036;28;20065;-75
2021/01/06 08:50:39;;;;;;;13.10;2.50;;;;;;;0.16;100.00;100530.03;4972985;28;20532;-74
2021/01/06 08:53:44;;;;;;;4.53;2.30;;;;;;;0.13;100.00;100530.81;5013291;28;20061;-74
2021/01/06 08:57:18;;;;;;;3.97;2.42;;;;;;;0.11;100.00;100533.19;5013302;28;20056;-78
2021/01/06 09:00:26;;;;;;;2.17;0.52;;;;;;;0.15;100.00;100525.75;5013175;28;20053;-74
2021/01/06 09:03:39;;;;;;;4.85;2.42;;;;;;;0.23;100.00;100532.78;5012734;28;20059;-74
2021/01/06 09:07:12;;;;;;;5.63;1.73;;;;;;;0.33;100.00;100542.97;5029326;28;20045;-74
2021/01/06 09:10:30;;;;;;;7.68;1.77;;;;;;;0.36;100.00;100533.97;5023627;28;20053;-74
2021/01/06 09:13:40;;;;;;;5.25;2.25;;;;;;;0.48;100.00;100534.38;5011867;28;20057;-74
2021/01/06 09:16:48;;;;;;;2.40;1.00;;;;;;;0.59;100.00;100528.91;5011799;28;20060;-75
2021/01/06 09:20:08;;;;;;;5.25;1.83;;;;;;;0.65;100.00;100539.06;5012105;28;20052;-74
2021/01/06 09:23:18;;;;;;;2.13;1.00;;;;;;;0.68;100.00;100537.50;5011492;28;20052;-75
2021/01/06 09:26:25;;;;;;;3.50;0.95;;;;;;;0.75;100.00;100532.03;5012130;28;20049;-74
2021/01/06 09:29:34;;;;;;;1.02;0.88;;;;;;;0.80;100.00;100542.63;5012247;28;20053;-75
2021/01/06 09:32:39;;;;;;;3.47;1.35;;;;;;;0.86;100.00;100538.28;5011846;28;20551;-75
2021/01/06 09:35:43;;;;;;;3.88;1.67;;;;;;;0.93;100.00;100538.28;5012496;28;20052;-76
2021/01/06 09:38:49;;;;;;;0.70;0.70;;;;;;;0.98;100.00;100543.38;5012714;28;20049;-75
2021/01/06 09:41:56;;;;;;;6.65;1.00;;;;;;;1.05;100.00;100540.63;5012731;28;20057;-75
2021/01/06 09:44:59;;;;;;;7.18;1.33;;;;;;;1.11;100.00;100539.03;5013638;28;20437;-76
2021/01/06 09:48:06;;;;;;;3.80;1.33;;;;;;;1.16;100.00;100535.91;5012351;28;20053;-75
2021/01/06 09:51:12;;;;;;;2.00;0.38;;;;;;;1.23;100.00;100529.63;5012724;28;20426;-74
2021/01/06 09:54:16;;;;;;;6.25;1.60;;;;;;;1.29;100.00;100530.75;5012548;28;20072;-74
2021/01/06 09:57:21;;;;;;;1.98;1.45;;;;;;;1.34;100.00;100524.88;5012486;28;20057;-76
2021/01/06 10:01:02;;;;;;;2.67;1.05;;;;;;;1.42;100.00;100524.47;5000330;28;20049;-74
2021/01/06 10:04:18;;;;;;;1.45;0.85;;;;;;;1.50;100.00;100516.97;5004926;28;20053;-76
2021/01/06 10:07:35;;;;;;;3.60;1.15;;;;;;;1.59;100.00;100524.78;4992733;28;20505;-76
2021/01/06 10:10:41;;;;;;;3.28;2.25;;;;;;;1.61;100.00;100527.91;5003604;28;20061;-76
2021/01/06 10:14:00;;;;;;;1.27;0.82;;;;;;;1.60;100.00;100531.84;5011117;28;20109;-76
2021/01/06 10:17:11;;;;;;;2.20;0.75;;;;;;;1.60;100.00;100531.84;5012137;28;20410;-76
2021/01/06 10:20:43;;;;;;;0.82;0.70;;;;;;;1.60;100.00;100526.34;5012187;28;20089;-76
2021/01/06 10:23:48;;;;;;;1.45;1.30;;;;;;;1.58;100.00;100528.72;5005311;28;20057;-76
2021/01/06 10:27:23;;;;;;;5.47;1.67;;;;;;;1.49;100.00;100532.66;5011958;28;20061;-76
2021/01/06 10:30:30;;;;;;;1.95;0.80;;;;;;;1.42;100.00;100526.41;5012109;28;20053;-75
2021/01/06 10:33:35;;;;;;;2.10;1.05;;;;;;;1.40;100.00;100529.56;5011885;28;20065;-75
2021/01/06 10:36:54;;;;;;;0.82;0.70;;;;;;;1.43;100.00;100527.97;5012105;28;20064;-76
2021/01/06 10:40:14;;;;;;;2.15;1.38;;;;;;;1.49;100.00;100526.41;5012007;28;20049;-75
2021/01/06 10:43:32;;;;;;;7.00;1.40;;;;;;;1.52;100.00;100529.13;5011826;28;20073;-76
2021/01/06 10:46:49;;;;;;;1.52;1.17;;;;;;;1.56;100.00;100523.59;5011635;28;20056;-76
2021/01/06 10:50:04;;;;;;;1.80;1.15;;;;;;;1.58;100.00;100523.22;5011944;28;20053;-76
2021/01/06 10:53:13;;;;;;;3.60;1.33;;;;;;;1.66;100.00;100524.75;5011894;28;20406;-76
2021/01/06 10:56:17;;;;;;;2.40;1.48;;;;;;;1.78;100.00;100527.03;5011583;28;20398;-76
2021/01/06 10:59:21;;;;;;;0.30;0.30;;;;;;;1.89;100.00;100517.56;5011543;28;20052;-76
2021/01/06 11:03:07;;;;;;;1.13;0.60;;;;;;;1.96;100.00;100511.25;5011881;28;20049;-75
2021/01/06 11:06:31;;;;;;;1.20;0.35;;;;;;;2.06;100.00;100510.41;5012304;28;20068;-75
2021/01/06 11:09:48;;;;;;;0.80;0.13;;;;;;;2.06;100.00;100504.91;5011299;28;20061;-76
2021/01/06 11:13:13;;;;;;;12.90;1.17;;;;;;;2.10;100.00;100489.97;5011675;28;20057;-75
2021/01/06 11:16:22;;;;;;;11.38;1.38;;;;;;;2.07;100.00;100490.78;5011605;28;20061;-75
2021/01/06 11:19:41;;;;;;;2.05;0.98;;;;;;;2.08;100.00;100486.09;5011923;28;20053;-75
2021/01/06 11:22:46;;;;;;;1.60;0.65;;;;;;;2.04;100.00;100480.59;5011710;28;20061;-75
2021/01/06 11:25:53;;;;;;;3.03;1.60;;;;;;;2.02;100.00;100471.97;5011591;28;20052;-75
2021/01/06 11:29:24;;;;;;;29.80;1.35;;;;;;;1.98;100.00;100470.44;5015428;28;20402;-76
2021/01/06 11:32:33;;;;;;;0.70;0.43;;;;;;;1.95;100.00;100476.75;5015123;28;20053;-75
2021/01/06 11:35:48;;;;;;;1.35;0.55;;;;;;;1.90;100.00;100466.97;5014807;28;20053;-75
2021/01/06 11:38:58;;;;;;;9.18;1.20;;;;;;;1.95;100.00;100455.53;5015123;28;20057;-75
2021/01/06 11:42:10;;;;;;;3.88;1.27;;;;;;;2.04;100.00;100461.38;5015273;28;20064;-74
2021/01/06 11:45:16;;;;;;;13.07;1.08;;;;;;;2.12;100.00;100462.13;5015343;28;20065;-75
2021/01/06 11:48:42;;;;;;;0.45;0.38;;;;;;;2.15;100.00;100455.78;5014980;28;20052;-75
2021/01/06 11:52:23;;;;;;;0.75;0.45;;;;;;;2.23;100.00;100460.84;5014963;28;20056;-75
2021/01/06 11:55:44;;;;;;;2.40;0.38;;;;;;;2.43;100.00;100452.81;5015071;28;20398;-77
2021/01/06 11:59:21;;;;;;;0.57;0.52;;;;;;;2.63;100.00;100444.78;5015710;28;20049;-77
2021/01/06 12:02:34;;;;;;;1.83;0.77;;;;;;;2.74;100.00;100443.50;5015248;28;20061;-76
2021/01/06 12:05:47;;;;;;;3.30;1.15;;;;;;;2.71;100.00;100429.78;5014102;28;20509;-76
2021/01/06 12:09:09;;;;;;;0.82;0.50;;;;;;;2.69;100.00;100432.94;5014442;28;20057;-76
2021/01/06 12:12:28;;;;;;;1.95;0.60;;;;;;;2.58;100.00;100428.75;5015026;28;20417;-76
2021/01/06 12:15:47;;;;;;;0.90;0.65;;;;;;;2.55;100.00;100427.59;5014887;28;20064;-76
2021/01/06 12:19:07;;;;;;;1.35;1.13;;;;;;;2.42;100.00;100423.78;5014310;28;20060;-76
2021/01/06 12:22:14;;;;;;;2.53;0.98;;;;;;;2.34;100.00;100416.03;5014091;28;20056;-76
2021/01/06 12:25:24;;;;;;;6.53;0.65;;;;;;;2.32;100.00;100424.66;5014583;28;20057;-76
2021/01/06 12:28:30;;;;;;;0.60;0.55;;;;;;;2.32;100.00;100418.41;5014172;28;20057;-76
2021/01/06 12:31:46;;;;;;;1.55;0.93;;;;;;;2.34;100.00;100414.03;5013421;28;20056;-78
2021/01/06 12:34:53;;;;;;;1.45;0.85;;;;;;;2.38;100.00;100405.78;5013644;28;20053;-77
2021/01/06 12:38:20;;;;;;;0.30;0.30;;;;;;;2.42;100.00;100399.06;5013052;28;20052;-77
2021/01/06 12:41:25;;;;;;;0.57;0.45;;;;;;;2.39;100.00;100402.59;5013551;28;20052;-77
2021/01/06 12:44:33;;;;;;;0.55;0.35;;;;;;;2.37;100.00;100393.19;5013384;28;20092;-76
2021/01/06 12:48:00;;;;;;;0.90;0.30;;;;;;;2.39;100.00;100386.13;5013472;28;20053;-76
2021/01/06 12:51:16;;;;;;;0.90;0.40;;;;;;;2.64;100.00;100383.88;5012943;28;20057;-75
2021/01/06 12:54:21;;;;;;;13.45;0.55;;;;;;;2.90;100.00;100374.94;5013262;28;20061;-76
2021/01/06 12:57:31;;;;;;;1.20;0.63;;;;;;;3.10;100.00;100380.63;5012326;28;20061;-77
2021/01/06 13:00:44;;;;;;;1.00;0.75;;;;;;;3.19;100.00;100372.63;5013099;28;20053;-76
2021/01/06 13:03:57;;;;;;;3.60;1.13;;;;;;;3.21;100.00;100372.22;5021434;28;20425;-76
2021/01/06 13:07:16;;;;;;;0.10;0.10;;;;;;;3.28;100.00;100363.88;5030444;28;20051;-77
2021/01/06 13:10:41;;;;;;;0.57;0.55;;;;;;;3.41;100.00;100367.63;5017805;28;20113;-75
2021/01/06 13:13:46;;;;;;;1.80;0.60;;;;;;;3.40;100.00;100368.84;5023228;28;20064;-76
2021/01/06 13:17:01;;;;;;;2.05;0.80;;;;;;;3.36;100.00;100370.84;5021637;28;20049;-78
2021/01/06 13:20:08;;;;;;;8.40;1.13;;;;;;;3.39;100.00;100368.06;5031460;28;20053;-77
2021/01/06 13:23:46;;;;;;;3.00;0.73;;;;;;;3.40;100.00;100371.59;5032395;28;20049;-77
2021/01/06 13:26:53;;;;;;;1.85;1.33;;;;;;;3.44;100.00;100372.31;5032655;28;20048;-75
2021/01/06 13:30:01;;;;;;;1.40;0.47;;;;;;;3.39;100.00;100370.03;5032538;28;20053;-75
2021/01/06 13:33:40;;;;;;;1.77;1.00;;;;;;;3.27;100.00;100365.09;5032331;28;20076;-74
2021/01/06 13:36:57;;;;;;;4.03;1.17;;;;;;;3.14;100.00;100364.84;5031335;28;20056;-78
2021/01/06 13:40:27;;;;;;;2.33;0.45;;;;;;;2.89;100.00;100370.66;5032296;28;20075;-76
2021/01/06 13:43:41;;;;;;;10.52;1.90;;;;;;;2.68;100.00;100367.38;5033030;28;20448;-75
2021/01/06 13:46:57;;;;;;;3.75;0.63;;;;;;;2.50;100.00;100370.31;5034497;28;20080;-78
2021/01/06 13:50:09;;;;;;;13.38;0.63;;;;;;;2.34;100.00;100366.56;5033331;28;20111;-81
2021/01/06 13:53:22;;;;;;;5.07;1.17;;;;;;;2.15;100.00;100365.94;5032882;28;20425;-74
2021/01/06 13:56:50;;;;;;;1.75;1.48;;;;;;;1.97;100.00;100364.53;5032727;28;20052;-76
2021/01/06 13:59:59;;;;;;;6.72;1.83;;;;;;;1.81;100.00;100361.50;5032534;28;20064;-74
2021/01/06 14:03:25;;;;;;;4.88;1.23;;;;;;;1.64;100.00;100362.41;5033061;28;20045;-75
2021/01/06 14:07:15;;;;;;;3.75;2.28;;;;;;;1.49;100.00;100361.75;5012396;28;20057;-75
2021/01/06 14:10:36;;;;;;;1.27;0.77;;;;;;;1.36;100.00;100361.44;5012662;28;20045;-77
2021/01/06 14:14:41;;;;;;;21.40;5.63;;;;;;;1.23;100.00;100365.03;4992401;28;20505;-76
2021/01/06 14:18:06;;;;;;;18.13;5.40;;;;;;;1.11;100.00;100365.47;4986458;28;20053;-77
2021/01/06 14:21:16;;;;;;;;;;;;;;;1.05;100.00;100370.59;5000957;28;20061;-77
2021/01/06 14:24:25;;;;;;;21.40;8.75;;;;;;;0.93;100.00;100368.31;5011482;28;19918;-77
2021/01/06 14:27:44;;;;;;;29.77;7.13;;;;;;;0.87;100.00;100371.84;5011479;28;20061;-77
2021/01/06 14:31:22;;;;;;;20.90;5.88;;;;;;;0.76;100.00;100366.38;5012016;28;20638;-78
2021/01/06 14:34:30;;;;;;;69.18;10.98;;;;;;;0.68;100.00;100362.09;5011844;28;20568;-77
2021/01/06 14:37:46;;;;;;;84.60;16.40;;;;;;;0.61;100.00;100365.66;5011599;28;20053;-77
2021/01/06 14:40:54;;;;;;;94.15;21.00;;;;;;;0.55;100.00;100369.97;5011735;28;20438;-78
2021/01/06 14:44:16;;;;;;;35.58;11.88;;;;;;;0.51;100.00;100360.19;5011849;28;20054;-78
2021/01/06 14:47:35;;;;;;;30.23;6.70;;;;;;;0.47;100.00;100367.66;4999559;28;20050;-78
2021/01/06 14:50:48;;;;;;;21.48;5.22;;;;;;;0.42;100.00;100360.63;5011803;28;20118;-78
2021/01/06 14:54:03;;;;;;;1.75;1.65;;;;;;;0.40;100.00;100367.66;5011503;28;20658;-78